createdAt,value
2023-05-17T00:00:17.090Z,86.70
2023-05-17T00:01:17.164Z,87.01
2023-05-17T00:02:17.150Z,86.66
2023-05-17T00:03:17.162Z,86.45
2023-05-17T00:04:17.157Z,85.83
2023-05-17T00:05:17.126Z,85.49
2023-05-17T00:06:17.149Z,86.04
2023-05-17T00:07:17.121Z,85.25
2023-05-17T00:08:17.287Z,85.46
2023-05-17T00:09:17.240Z,86.32
2023-05-17T00:10:17.168Z,85.81
2023-05-17T00:11:17.200Z,86.47
2023-05-17T00:12:17.155Z,86.68
2023-05-17T00:13:17.125Z,86.98
2023-05-17T00:14:17.096Z,87.50
2023-05-17T00:15:17.169Z,87.71
2023-05-17T00:16:17.164Z,88.02
2023-05-17T00:17:17.072Z,88.22
2023-05-17T00:18:17.741Z,88.43
2023-05-17T00:19:17.514Z,88.64
2023-05-17T00:20:17.142Z,88.68
2023-05-17T00:21:17.073Z,88.74
2023-05-17T00:22:17.119Z,88.84
2023-05-17T00:23:17.064Z,88.89
2023-05-17T00:24:17.186Z,88.98
2023-05-17T00:25:17.050Z,89.36
2023-05-17T00:26:17.142Z,89.25
2023-05-17T00:27:17.052Z,89.50
2023-05-17T00:28:17.051Z,89.40
2023-05-17T00:29:17.372Z,89.71
2023-05-17T00:30:17.026Z,89.92
2023-05-17T00:31:17.036Z,89.81
2023-05-17T00:32:17.065Z,89.71
2023-05-17T00:33:17.046Z,90.02
2023-05-17T00:34:17.048Z,90.08
2023-05-17T00:35:17.062Z,90.02
2023-05-17T00:36:16.972Z,90.53
2023-05-17T00:37:16.971Z,90.02
2023-05-17T00:38:16.977Z,90.43
2023-05-17T00:39:16.951Z,90.53
2023-05-17T00:40:16.885Z,90.43
2023-05-17T00:41:16.853Z,90.22
2023-05-17T00:42:16.880Z,90.95
2023-05-17T00:43:16.826Z,91.36
2023-05-17T00:44:16.873Z,90.95
2023-05-17T00:45:17.085Z,90.33
2023-05-17T00:46:16.990Z,90.49
2023-05-17T00:47:16.818Z,90.19
2023-05-17T00:48:16.952Z,90.33
2023-05-17T00:49:16.806Z,90.02
2023-05-17T00:50:16.844Z,90.12
2023-05-17T00:51:16.858Z,89.98
2023-05-17T00:52:16.764Z,90.39
2023-05-17T00:53:16.873Z,90.33
2023-05-17T00:54:16.812Z,90.22
2023-05-17T00:55:16.853Z,90.19
2023-05-17T00:56:16.867Z,90.28
2023-05-17T00:57:17.093Z,90.19
2023-05-17T00:58:16.796Z,89.98
2023-05-17T00:59:16.879Z,89.77
2023-05-17T01:00:16.819Z,89.67
2023-05-17T01:01:16.877Z,89.52
2023-05-17T01:02:16.788Z,89.42
2023-05-17T01:03:16.974Z,89.11
2023-05-17T01:04:17.050Z,88.70
2023-05-17T01:05:16.811Z,88.56
2023-05-17T01:06:16.937Z,88.65
2023-05-17T01:07:16.787Z,88.24
2023-05-17T01:08:16.772Z,88.35
2023-05-17T01:09:16.783Z,88.45
2023-05-17T01:10:16.812Z,88.41
2023-05-17T01:11:16.724Z,88.51
2023-05-17T01:12:16.788Z,88.76
2023-05-17T01:13:16.709Z,88.56
2023-05-17T01:14:17.012Z,88.96
2023-05-17T01:15:16.743Z,89.13
2023-05-17T01:16:16.695Z,89.13
2023-05-17T01:17:16.850Z,89.23
2023-05-17T01:18:16.710Z,88.96
2023-05-17T01:19:16.695Z,89.17
2023-05-17T01:20:16.621Z,89.65
2023-05-17T01:21:16.623Z,89.58
2023-05-17T01:22:16.674Z,90.00
2023-05-17T01:23:16.530Z,90.31
2023-05-17T01:24:16.531Z,91.38
2023-05-17T01:25:16.542Z,90.66
2023-05-17T01:26:16.580Z,91.44
2023-05-17T01:27:16.539Z,91.07
2023-05-17T01:28:16.551Z,91.54
2023-05-17T01:29:16.572Z,91.38
2023-05-17T01:30:16.526Z,91.58
2023-05-17T01:31:16.514Z,91.89
2023-05-17T01:32:16.864Z,92.04
2023-05-17T01:33:16.799Z,92.14
2023-05-17T01:34:16.548Z,92.00
2023-05-17T01:35:16.630Z,91.89
2023-05-17T01:36:16.597Z,91.48
2023-05-17T01:37:16.535Z,90.97
2023-05-17T01:38:16.666Z,91.48
2023-05-17T01:39:16.550Z,91.63
2023-05-17T01:40:16.589Z,91.79
2023-05-17T01:41:16.610Z,91.52
2023-05-17T01:42:16.500Z,91.52
2023-05-17T01:43:16.841Z,91.52
2023-05-17T01:44:17.490Z,91.63
2023-05-17T01:45:16.518Z,91.52
2023-05-17T01:46:16.511Z,91.79
2023-05-17T01:47:16.602Z,91.38
2023-05-17T01:48:16.582Z,90.97
2023-05-17T01:49:16.533Z,91.03
2023-05-17T01:50:16.565Z,90.51
2023-05-17T01:51:16.408Z,90.41
2023-05-17T01:52:16.313Z,89.95
2023-05-17T01:53:16.360Z,89.54
2023-05-17T01:54:16.384Z,89.23
2023-05-17T01:55:16.452Z,89.13
2023-05-17T01:56:16.326Z,88.72
2023-05-17T01:57:16.320Z,88.62
2023-05-17T01:58:16.294Z,88.20
2023-05-17T01:59:16.365Z,88.20
2023-05-17T02:00:16.303Z,87.79
2023-05-17T02:01:16.330Z,88.20
2023-05-17T02:02:16.351Z,89.07
2023-05-17T02:03:16.483Z,89.32
2023-05-17T02:04:16.526Z,90.04
2023-05-17T02:05:16.487Z,90.86
2023-05-17T02:06:16.392Z,91.58
2023-05-17T02:07:16.335Z,90.86
2023-05-17T02:08:16.378Z,91.07
2023-05-17T02:09:16.343Z,90.66
2023-05-17T02:10:16.402Z,90.41
2023-05-17T02:11:16.607Z,90.14
2023-05-17T02:12:16.324Z,89.69
2023-05-17T02:13:16.200Z,90.10
2023-05-17T02:14:16.333Z,89.79
2023-05-17T02:15:16.621Z,89.58
2023-05-17T02:16:16.319Z,89.54
2023-05-17T02:17:16.394Z,89.38
2023-05-17T02:18:16.389Z,89.03
2023-05-17T02:19:16.412Z,89.13
2023-05-17T02:20:16.345Z,89.13
2023-05-17T02:21:16.298Z,88.92
2023-05-17T02:22:16.220Z,89.03
2023-05-17T02:23:16.304Z,88.62
2023-05-17T02:24:16.288Z,88.92
2023-05-17T02:25:16.230Z,88.26
2023-05-17T02:26:16.321Z,88.20
2023-05-17T02:27:16.546Z,87.85
2023-05-17T02:28:16.662Z,87.96
2023-05-17T02:29:16.188Z,88.20
2023-05-17T02:30:18.115Z,88.51
2023-05-17T02:31:16.273Z,88.82
2023-05-17T02:32:16.318Z,89.48
2023-05-17T02:33:16.243Z,89.38
2023-05-17T02:34:16.100Z,89.83
2023-05-17T02:35:16.086Z,90.35
2023-05-17T02:36:16.101Z,91.07
2023-05-17T02:37:16.102Z,91.01
2023-05-17T02:38:16.300Z,91.42
2023-05-17T02:39:16.183Z,91.11
2023-05-17T02:40:16.190Z,91.94
2023-05-17T02:41:16.193Z,91.16
2023-05-17T02:42:16.110Z,91.83
2023-05-17T02:43:16.147Z,91.94
2023-05-17T02:44:16.470Z,92.60
2023-05-17T02:45:16.107Z,92.70
2023-05-17T02:46:16.061Z,92.60
2023-05-17T02:47:16.231Z,92.50
2023-05-17T02:48:16.124Z,92.60
2023-05-17T02:49:16.102Z,92.46
2023-05-17T02:50:16.063Z,91.83
2023-05-17T02:51:16.069Z,91.52
2023-05-17T02:52:16.293Z,91.42
2023-05-17T02:53:16.093Z,91.89
2023-05-17T02:54:16.003Z,91.48
2023-05-17T02:55:16.387Z,91.52
2023-05-17T02:56:16.070Z,91.58
2023-05-17T02:57:16.137Z,91.79
2023-05-17T02:58:16.620Z,91.69
2023-05-17T02:59:15.911Z,91.89
2023-05-17T03:00:15.920Z,91.58
2023-05-17T03:01:15.867Z,91.07
2023-05-17T03:02:15.952Z,91.73
2023-05-17T03:03:16.026Z,92.25
2023-05-17T03:04:15.928Z,92.76
2023-05-17T03:05:15.860Z,92.55
2023-05-17T03:06:15.910Z,93.32
2023-05-17T03:07:15.911Z,93.01
2023-05-17T03:08:15.998Z,93.53
2023-05-17T03:09:15.944Z,93.53
2023-05-17T03:10:15.937Z,93.32
2023-05-17T03:11:15.909Z,93.53
2023-05-17T03:12:15.904Z,93.12
2023-05-17T03:13:15.864Z,93.22
2023-05-17T03:14:15.927Z,93.53
2023-05-17T03:15:15.943Z,93.22
2023-05-17T03:16:16.162Z,93.32
2023-05-17T03:17:15.846Z,93.28
2023-05-17T03:18:16.147Z,93.28
2023-05-17T03:19:15.916Z,92.66
2023-05-17T03:20:15.970Z,92.82
2023-05-17T03:21:15.807Z,92.10
2023-05-17T03:22:15.852Z,91.89
2023-05-17T03:23:15.877Z,91.85
2023-05-17T03:24:15.900Z,91.38
2023-05-17T03:25:16.051Z,90.92
2023-05-17T03:26:15.856Z,90.92
2023-05-17T03:27:16.135Z,90.61
2023-05-17T03:28:15.897Z,90.82
2023-05-17T03:29:15.862Z,90.61
2023-05-17T03:30:15.692Z,90.31
2023-05-17T03:31:15.650Z,90.20
2023-05-17T03:32:15.641Z,90.00
2023-05-17T03:33:15.826Z,90.16
2023-05-17T03:34:15.872Z,90.51
2023-05-17T03:35:15.706Z,90.41
2023-05-17T03:36:15.801Z,90.00
2023-05-17T03:37:15.786Z,90.51
2023-05-17T03:38:15.738Z,90.51
2023-05-17T03:39:16.119Z,90.41
2023-05-17T03:40:15.739Z,90.31
2023-05-17T03:41:16.001Z,90.10
2023-05-17T03:42:15.660Z,90.72
2023-05-17T03:43:15.801Z,91.03
2023-05-17T03:44:15.780Z,91.13
2023-05-17T03:45:15.807Z,90.92
2023-05-17T03:46:15.647Z,90.99
2023-05-17T03:47:15.821Z,90.78
2023-05-17T03:48:15.678Z,90.47
2023-05-17T03:49:15.757Z,90.78
2023-05-17T03:50:15.905Z,90.47
2023-05-17T03:51:15.649Z,90.92
2023-05-17T03:52:15.686Z,91.24
2023-05-17T03:53:15.574Z,91.85
2023-05-17T03:54:15.598Z,91.34
2023-05-17T03:55:15.744Z,91.85
2023-05-17T03:56:15.517Z,91.75
2023-05-17T03:57:15.766Z,92.47
2023-05-17T03:58:15.460Z,92.12
2023-05-17T03:59:15.504Z,92.33
2023-05-17T04:00:15.514Z,91.40
2023-05-17T04:01:15.515Z,91.66
2023-05-17T04:02:15.495Z,91.81
2023-05-17T04:03:16.550Z,90.84
2023-05-17T04:04:15.513Z,91.15
2023-05-17T04:05:15.610Z,91.25
2023-05-17T04:06:15.472Z,91.15
2023-05-17T04:07:15.545Z,90.69
2023-05-17T04:08:15.617Z,90.80
2023-05-17T04:09:15.564Z,90.28
2023-05-17T04:10:15.596Z,89.36
2023-05-17T04:11:15.530Z,89.25
2023-05-17T04:12:15.902Z,89.42
2023-05-17T04:13:15.466Z,89.22
2023-05-17T04:14:15.474Z,89.31
2023-05-17T04:15:15.505Z,89.46
2023-05-17T04:16:15.440Z,89.46
2023-05-17T04:17:16.986Z,89.36
2023-05-17T04:18:16.508Z,90.73
2023-05-17T04:19:15.613Z,91.46
2023-05-17T04:20:15.580Z,91.46
2023-05-17T04:21:15.430Z,91.25
2023-05-17T04:22:15.486Z,91.15
2023-05-17T04:23:15.465Z,90.88
2023-05-17T04:24:16.368Z,90.88
2023-05-17T04:25:15.526Z,90.88
2023-05-17T04:26:16.251Z,91.19
2023-05-17T04:27:15.342Z,91.81
2023-05-17T04:28:15.268Z,92.33
2023-05-17T04:29:15.355Z,93.05
2023-05-17T04:30:15.310Z,92.80
2023-05-17T04:31:15.312Z,92.90
2023-05-17T04:32:15.319Z,92.18
2023-05-17T04:33:15.359Z,91.56
2023-05-17T04:34:15.333Z,91.46
2023-05-17T04:35:15.371Z,91.15
2023-05-17T04:36:15.333Z,90.59
2023-05-17T04:37:15.396Z,90.39
2023-05-17T04:38:15.373Z,91.00
2023-05-17T04:39:15.328Z,91.31
2023-05-17T04:40:15.327Z,91.17
2023-05-17T04:41:15.306Z,91.38
2023-05-17T04:42:15.269Z,90.20
2023-05-17T04:43:15.383Z,90.20
2023-05-17T04:44:15.296Z,89.58
2023-05-17T04:45:15.709Z,89.28
2023-05-17T04:46:16.318Z,89.89
2023-05-17T04:47:15.288Z,89.75
2023-05-17T04:48:15.584Z,90.16
2023-05-17T04:49:15.248Z,89.85
2023-05-17T04:50:15.370Z,89.79
2023-05-17T04:51:15.096Z,90.00
2023-05-17T04:52:15.113Z,89.89
2023-05-17T04:53:15.159Z,90.81
2023-05-17T04:54:15.191Z,91.44
2023-05-17T04:55:15.110Z,91.64
2023-05-17T04:56:15.200Z,90.67
2023-05-17T04:57:15.122Z,91.29
2023-05-17T04:58:15.134Z,90.98
2023-05-17T04:59:15.528Z,90.12
2023-05-17T05:00:15.092Z,89.50
2023-05-17T05:01:15.403Z,89.64
2023-05-17T05:02:15.121Z,89.23
2023-05-17T05:03:15.369Z,90.00
2023-05-17T05:04:15.321Z,90.09
2023-05-17T05:05:15.197Z,90.92
2023-05-17T05:06:15.105Z,91.38
2023-05-17T05:07:15.116Z,91.93
2023-05-17T05:08:15.113Z,92.55
2023-05-17T05:09:15.158Z,92.40
2023-05-17T05:10:15.127Z,93.12
2023-05-17T05:11:15.216Z,92.71
2023-05-17T05:12:15.397Z,92.40
2023-05-17T05:13:15.151Z,91.74
2023-05-17T05:14:15.051Z,92.20
2023-05-17T05:15:15.225Z,92.71
2023-05-17T05:16:15.106Z,92.25
2023-05-17T05:17:15.248Z,92.40
2023-05-17T05:18:15.121Z,92.30
2023-05-17T05:19:15.342Z,92.82
2023-05-17T05:20:15.106Z,93.43
2023-05-17T05:21:15.045Z,93.59
2023-05-17T05:22:15.055Z,92.87
2023-05-17T05:23:14.858Z,92.77
2023-05-17T05:24:15.888Z,92.21
2023-05-17T05:25:15.088Z,92.63
2023-05-17T05:26:15.769Z,91.97
2023-05-17T05:27:14.916Z,91.35
2023-05-17T05:28:14.881Z,91.04
2023-05-17T05:29:15.000Z,90.67
2023-05-17T05:30:14.993Z,91.29
2023-05-17T05:31:15.115Z,91.55
2023-05-17T05:32:15.043Z,91.45
2023-05-17T05:33:15.069Z,91.55
2023-05-17T05:34:15.139Z,91.60
2023-05-17T05:35:14.932Z,92.01
2023-05-17T05:36:15.076Z,91.80
2023-05-17T05:37:16.610Z,91.97
2023-05-17T05:38:15.036Z,92.17
2023-05-17T05:39:14.893Z,92.17
2023-05-17T05:40:15.987Z,91.41
2023-05-17T05:41:14.945Z,91.00
2023-05-17T05:42:14.939Z,90.59
2023-05-17T05:43:14.898Z,90.85
2023-05-17T05:44:14.800Z,90.75
2023-05-17T05:45:14.733Z,89.83
2023-05-17T05:46:14.801Z,89.11
2023-05-17T05:47:14.816Z,89.27
2023-05-17T05:48:14.816Z,89.69
2023-05-17T05:49:15.036Z,88.96
2023-05-17T05:50:14.774Z,88.66
2023-05-17T05:51:14.690Z,88.96
2023-05-17T05:52:14.835Z,89.13
2023-05-17T05:53:19.328Z,88.92
2023-05-17T05:54:15.689Z,88.62
2023-05-17T05:55:15.495Z,87.38
2023-05-17T05:56:14.794Z,87.04
2023-05-17T05:57:14.951Z,87.34
2023-05-17T05:58:14.775Z,88.88
2023-05-17T05:59:14.849Z,87.79
2023-05-17T06:00:14.854Z,87.38
2023-05-17T06:01:14.860Z,88.21
2023-05-17T06:02:14.754Z,87.45
2023-05-17T06:03:14.753Z,86.73
2023-05-17T06:04:14.749Z,86.01
2023-05-17T06:05:15.047Z,86.58
2023-05-17T06:06:14.756Z,85.31
2023-05-17T06:07:14.733Z,86.65
2023-05-17T06:08:14.726Z,87.02
2023-05-17T06:09:14.645Z,85.03
2023-05-17T06:10:14.603Z,83.15
2023-05-17T06:11:15.621Z,82.91
2023-05-17T06:12:14.543Z,83.22
2023-05-17T06:13:14.611Z,81.13
2023-05-17T06:14:15.470Z,81.34
2023-05-17T06:15:14.574Z,80.83
2023-05-17T06:16:14.948Z,81.44
2023-05-17T06:17:14.546Z,80.73
2023-05-17T06:18:14.714Z,80.99
2023-05-17T06:19:14.586Z,81.20
2023-05-17T06:20:14.555Z,81.05
2023-05-17T06:21:15.039Z,80.55
2023-05-17T06:22:14.751Z,79.12
2023-05-17T06:23:14.631Z,78.20
2023-05-17T06:24:14.692Z,77.48
2023-05-17T06:25:14.567Z,76.63
2023-05-17T06:26:14.610Z,77.04
2023-05-17T06:27:14.616Z,76.84
2023-05-17T06:28:14.590Z,74.83
2023-05-17T06:29:14.579Z,74.76
2023-05-17T06:30:15.768Z,77.18
2023-05-17T06:31:14.501Z,73.33
2023-05-17T06:32:14.824Z,74.46
2023-05-17T06:33:14.548Z,73.54
2023-05-17T06:34:14.564Z,72.92
2023-05-17T06:35:14.525Z,73.64
2023-05-17T06:36:14.555Z,74.59
2023-05-17T06:37:14.537Z,74.80
2023-05-17T06:38:14.477Z,74.80
2023-05-17T06:39:14.381Z,72.79
2023-05-17T06:40:16.619Z,73.61
2023-05-17T06:41:15.392Z,72.99
2023-05-17T06:42:14.483Z,74.43
2023-05-17T06:43:14.384Z,74.56
2023-05-17T06:44:14.377Z,73.20
2023-05-17T06:45:14.508Z,73.10
2023-05-17T06:46:14.395Z,72.96
2023-05-17T06:47:14.419Z,73.13
2023-05-17T06:48:14.482Z,72.79
2023-05-17T06:49:14.651Z,72.79
2023-05-17T06:50:14.448Z,71.29
2023-05-17T06:51:14.499Z,70.44
2023-05-17T06:52:14.394Z,70.85
2023-05-17T06:53:14.342Z,70.20
2023-05-17T06:54:14.333Z,71.12
2023-05-17T06:55:14.310Z,70.27
2023-05-17T06:56:14.404Z,69.93
2023-05-17T06:57:14.389Z,71.77
2023-05-17T06:58:14.280Z,71.15
2023-05-17T06:59:15.297Z,69.05
2023-05-17T07:00:14.540Z,68.95
2023-05-17T07:01:14.305Z,70.27
2023-05-17T07:02:14.122Z,68.64
2023-05-17T07:03:14.331Z,68.23
2023-05-17T07:04:14.373Z,68.95
2023-05-17T07:05:14.326Z,68.23
2023-05-17T07:06:14.135Z,67.59
2023-05-17T07:07:14.139Z,69.32
2023-05-17T07:08:14.258Z,68.27
2023-05-17T07:09:14.300Z,69.09
2023-05-17T07:10:14.275Z,68.57
2023-05-17T07:11:14.389Z,66.74
2023-05-17T07:12:14.377Z,66.57
2023-05-17T07:13:14.146Z,66.97
2023-05-17T07:14:14.179Z,66.97
2023-05-17T07:15:14.192Z,66.80
2023-05-17T07:16:14.264Z,67.08
2023-05-17T07:17:14.186Z,65.71
2023-05-17T07:18:15.076Z,67.76
2023-05-17T07:19:14.246Z,67.68
2023-05-17T07:20:14.966Z,68.50
2023-05-17T07:21:14.181Z,68.84
2023-05-17T07:22:14.122Z,70.06
2023-05-17T07:23:14.129Z,68.74
2023-05-17T07:24:14.369Z,67.99
2023-05-17T07:25:14.188Z,67.21
2023-05-17T07:26:14.072Z,67.89
2023-05-17T07:27:14.161Z,65.61
2023-05-17T07:28:14.190Z,65.99
2023-05-17T07:29:13.970Z,65.07
2023-05-17T07:30:13.955Z,65.58
2023-05-17T07:31:14.331Z,65.68
2023-05-17T07:32:14.064Z,66.47
2023-05-17T07:33:14.056Z,64.22
2023-05-17T07:34:14.102Z,62.90
2023-05-17T07:35:13.925Z,62.80
2023-05-17T07:36:14.573Z,64.22
2023-05-17T07:37:13.943Z,65.48
2023-05-17T07:38:14.065Z,66.06
2023-05-17T07:39:13.987Z,65.58
2023-05-17T07:40:14.068Z,63.95
2023-05-17T07:41:14.325Z,63.78
2023-05-17T07:42:14.016Z,64.69
2023-05-17T07:43:14.039Z,64.22
2023-05-17T07:44:14.087Z,64.11
2023-05-17T07:45:14.027Z,64.96
2023-05-17T07:46:14.053Z,67.95
2023-05-17T07:47:13.989Z,66.93
2023-05-17T07:48:14.152Z,66.28
2023-05-17T07:49:14.146Z,67.99
2023-05-17T07:50:14.063Z,65.81
2023-05-17T07:51:14.886Z,65.89
2023-05-17T07:52:14.334Z,65.04
2023-05-17T07:53:14.106Z,64.17
2023-05-17T07:54:13.850Z,64.14
2023-05-17T07:55:16.652Z,64.41
2023-05-17T07:56:13.850Z,61.15
2023-05-17T07:57:13.828Z,61.69
2023-05-17T07:58:13.746Z,62.43
2023-05-17T07:59:13.769Z,60.22
2023-05-17T08:00:13.915Z,60.05
2023-05-17T08:01:14.352Z,60.78
2023-05-17T08:02:13.884Z,61.91
2023-05-17T08:03:16.462Z,62.65
2023-05-17T08:04:13.873Z,61.83
2023-05-17T08:05:13.862Z,61.32
2023-05-17T08:06:13.832Z,61.30
2023-05-17T08:07:14.155Z,62.76
2023-05-17T08:08:13.782Z,65.03
2023-05-17T08:09:13.870Z,63.90
2023-05-17T08:10:14.269Z,64.52
2023-05-17T08:11:13.881Z,64.90
2023-05-17T08:12:13.727Z,64.93
2023-05-17T08:13:13.833Z,65.74
2023-05-17T08:14:13.725Z,65.23
2023-05-17T08:15:14.244Z,66.53
2023-05-17T08:16:14.843Z,62.17
2023-05-17T08:17:14.837Z,64.34
2023-05-17T08:18:14.022Z,65.98
2023-05-17T08:19:13.892Z,66.05
2023-05-17T08:20:13.739Z,63.98
2023-05-17T08:21:13.683Z,64.18
2023-05-17T08:22:13.571Z,65.10
2023-05-17T08:23:13.687Z,65.81
2023-05-17T08:24:13.599Z,64.28
2023-05-17T08:25:13.563Z,64.93
2023-05-17T08:26:14.314Z,64.45
2023-05-17T08:27:13.795Z,67.27
2023-05-17T08:28:13.523Z,64.49
2023-05-17T08:29:13.704Z,63.00
2023-05-17T08:30:18.186Z,59.91
2023-05-17T08:31:15.554Z,63.48
2023-05-17T08:32:13.680Z,59.61
2023-05-17T08:33:13.665Z,61.68
2023-05-17T08:34:13.775Z,61.98
2023-05-17T08:35:13.849Z,60.86
2023-05-17T08:36:13.668Z,60.02
2023-05-17T08:37:13.665Z,59.51
2023-05-17T08:38:13.562Z,60.12
2023-05-17T08:39:13.586Z,61.65
2023-05-17T08:40:13.606Z,60.30
2023-05-17T08:41:13.552Z,60.19
2023-05-17T08:42:13.719Z,59.68
2023-05-17T08:43:13.588Z,58.46
2023-05-17T08:44:13.657Z,57.87
2023-05-17T08:45:14.524Z,58.26
2023-05-17T08:46:14.874Z,57.34
2023-05-17T08:47:13.605Z,57.54
2023-05-17T08:48:13.585Z,57.85
2023-05-17T08:49:13.600Z,56.32
2023-05-17T08:50:13.563Z,57.34
2023-05-17T08:51:13.557Z,58.26
2023-05-17T08:52:13.491Z,60.30
2023-05-17T08:53:13.440Z,59.23
2023-05-17T08:54:13.349Z,60.12
2023-05-17T08:55:13.340Z,60.70
2023-05-17T08:56:13.467Z,62.51
2023-05-17T08:57:13.324Z,59.68
2023-05-17T08:58:13.788Z,59.66
2023-05-17T08:59:13.437Z,58.13
2023-05-17T09:00:13.481Z,58.13
2023-05-17T09:01:13.481Z,57.59
2023-05-17T09:02:13.431Z,58.00
2023-05-17T09:03:13.532Z,57.90
2023-05-17T09:04:14.388Z,58.92
2023-05-17T09:05:13.880Z,57.69
2023-05-17T09:06:13.456Z,57.16
2023-05-17T09:07:14.663Z,56.65
2023-05-17T09:08:13.427Z,58.99
2023-05-17T09:09:13.776Z,57.74
2023-05-17T09:10:13.373Z,54.72
2023-05-17T09:11:13.364Z,55.83
2023-05-17T09:12:14.350Z,57.77
2023-05-17T09:13:13.256Z,56.45
2023-05-17T09:14:13.631Z,56.37
2023-05-17T09:15:13.179Z,58.94
2023-05-17T09:16:13.162Z,58.64
2023-05-17T09:17:13.251Z,58.05
2023-05-17T09:18:13.390Z,60.16
2023-05-17T09:19:13.370Z,57.56
2023-05-17T09:20:13.286Z,57.13
2023-05-17T09:21:13.157Z,56.55
2023-05-17T09:22:13.204Z,57.39
2023-05-17T09:23:13.160Z,58.78
2023-05-17T09:24:13.142Z,57.81
2023-05-17T09:25:13.464Z,57.31
2023-05-17T09:26:13.322Z,55.38
2023-05-17T09:27:13.467Z,55.07
2023-05-17T09:28:13.232Z,55.27
2023-05-17T09:29:13.225Z,57.84
2023-05-17T09:30:13.329Z,57.26
2023-05-17T09:31:13.230Z,58.07
2023-05-17T09:32:13.188Z,57.97
2023-05-17T09:33:15.168Z,56.55
2023-05-17T09:34:13.254Z,56.14
2023-05-17T09:35:13.276Z,57.36
2023-05-17T09:36:13.169Z,57.87
2023-05-17T09:37:13.270Z,56.34
2023-05-17T09:38:13.388Z,57.97
2023-05-17T09:39:13.846Z,56.21
2023-05-17T09:40:13.133Z,55.48
2023-05-17T09:41:13.311Z,52.12
2023-05-17T09:42:13.096Z,52.48
2023-05-17T09:43:13.066Z,51.06
2023-05-17T09:44:13.041Z,52.33
2023-05-17T09:45:13.026Z,53.14
2023-05-17T09:46:13.085Z,55.15
2023-05-17T09:47:13.009Z,54.51
2023-05-17T09:48:13.034Z,54.94
2023-05-17T09:49:13.010Z,53.52
2023-05-17T09:50:13.001Z,52.11
2023-05-17T09:51:13.049Z,52.00
2023-05-17T09:52:13.014Z,53.45
2023-05-17T09:53:13.069Z,51.62
2023-05-17T09:54:13.090Z,51.90
2023-05-17T09:55:13.319Z,53.85
2023-05-17T09:56:13.170Z,53.34
2023-05-17T09:57:13.023Z,53.14
2023-05-17T09:58:13.143Z,55.65
2023-05-17T09:59:13.094Z,55.27
2023-05-17T10:00:13.094Z,56.62
2023-05-17T10:01:13.029Z,56.44
2023-05-17T10:02:13.013Z,56.67
2023-05-17T10:03:13.016Z,56.06
2023-05-17T10:04:13.024Z,55.55
2023-05-17T10:05:13.101Z,55.07
2023-05-17T10:06:19.599Z,56.49
2023-05-17T10:07:14.873Z,55.33
2023-05-17T10:08:13.267Z,57.39
2023-05-17T10:09:12.921Z,57.29
2023-05-17T10:10:13.012Z,59.22
2023-05-17T10:11:13.193Z,59.22
2023-05-17T10:12:13.015Z,58.00
2023-05-17T10:13:12.924Z,57.42
2023-05-17T10:14:13.094Z,60.37
2023-05-17T10:15:12.986Z,56.50
2023-05-17T10:16:12.909Z,56.37
2023-05-17T10:17:12.953Z,59.19
2023-05-17T10:18:13.251Z,59.27
2023-05-17T10:19:13.102Z,56.77
2023-05-17T10:20:12.958Z,53.17
2023-05-17T10:21:12.948Z,54.77
2023-05-17T10:22:22.356Z,52.97
2023-05-17T10:23:14.925Z,52.86
2023-05-17T10:24:12.889Z,53.14
2023-05-17T10:25:12.785Z,54.86
2023-05-17T10:26:12.775Z,56.39
2023-05-17T10:27:12.791Z,55.17
2023-05-17T10:28:13.003Z,54.79
2023-05-17T10:29:13.153Z,53.98
2023-05-17T10:30:13.234Z,55.93
2023-05-17T10:31:12.988Z,53.17
2023-05-17T10:32:12.784Z,55.27
2023-05-17T10:33:12.945Z,55.18
2023-05-17T10:34:12.912Z,54.66
2023-05-17T10:35:12.897Z,53.19
2023-05-17T10:36:12.966Z,53.70
2023-05-17T10:37:12.669Z,53.34
2023-05-17T10:38:12.746Z,52.92
2023-05-17T10:39:12.800Z,50.96
2023-05-17T10:40:12.567Z,52.61
2023-05-17T10:41:14.235Z,53.72
2023-05-17T10:42:15.153Z,55.10
2023-05-17T10:43:13.592Z,57.15
2023-05-17T10:44:13.241Z,59.08
2023-05-17T10:45:13.709Z,53.34
2023-05-17T10:46:12.762Z,55.25
2023-05-17T10:47:12.815Z,56.06
2023-05-17T10:48:12.759Z,56.54
2023-05-17T10:49:13.028Z,56.24
2023-05-17T10:50:12.708Z,55.45
2023-05-17T10:51:12.601Z,55.93
2023-05-17T10:52:12.594Z,52.56
2023-05-17T10:53:12.710Z,52.15
2023-05-17T10:54:12.909Z,52.46
2023-05-17T10:55:12.668Z,52.28
2023-05-17T10:56:12.608Z,53.17
2023-05-17T10:57:12.597Z,52.15
2023-05-17T10:58:12.707Z,54.05
2023-05-17T10:59:12.414Z,55.15
2023-05-17T11:00:12.529Z,52.81
2023-05-17T11:01:12.430Z,50.96
2023-05-17T11:02:12.402Z,50.76
2023-05-17T11:03:12.694Z,50.26
2023-05-17T11:04:12.445Z,50.84
2023-05-17T11:05:12.562Z,51.93
2023-05-17T11:06:19.359Z,51.12
2023-05-17T11:07:14.639Z,50.11
2023-05-17T11:08:12.440Z,53.05
2023-05-17T11:09:12.673Z,53.42
2023-05-17T11:10:12.486Z,52.59
2023-05-17T11:11:12.522Z,49.35
2023-05-17T11:12:13.524Z,48.14
2023-05-17T11:13:12.458Z,46.92
2023-05-17T11:14:12.660Z,47.55
2023-05-17T11:15:12.746Z,48.99
2023-05-17T11:16:12.623Z,51.04
2023-05-17T11:17:12.827Z,55.19
2023-05-17T11:18:22.658Z,53.27
2023-05-17T11:19:14.996Z,53.63
2023-05-17T11:20:13.850Z,52.40
2023-05-17T11:21:13.756Z,56.49
2023-05-17T11:22:12.424Z,55.27
2023-05-17T11:23:12.362Z,55.18
2023-05-17T11:24:12.386Z,54.57
2023-05-17T11:25:12.411Z,54.13
2023-05-17T11:26:16.248Z,52.99
2023-05-17T11:27:13.667Z,53.39
2023-05-17T11:28:12.390Z,54.92
2023-05-17T11:29:12.492Z,53.37
2023-05-17T11:30:12.455Z,54.13
2023-05-17T11:31:12.340Z,50.89
2023-05-17T11:32:12.374Z,49.06
2023-05-17T11:33:21.346Z,49.14
2023-05-17T11:34:14.760Z,49.14
2023-05-17T11:35:12.404Z,48.00
2023-05-17T11:36:12.348Z,47.88
2023-05-17T11:37:12.600Z,49.68
2023-05-17T11:38:12.302Z,50.43
2023-05-17T11:39:12.524Z,49.93
2023-05-17T11:40:12.807Z,50.35
2023-05-17T11:41:16.139Z,51.07
2023-05-17T11:42:14.340Z,50.34
2023-05-17T11:43:12.768Z,49.42
2023-05-17T11:44:12.204Z,49.11
2023-05-17T11:45:12.219Z,49.50
2023-05-17T11:46:12.538Z,49.19
2023-05-17T11:47:12.183Z,49.40
2023-05-17T11:48:12.316Z,49.40
2023-05-17T11:49:17.749Z,48.46
2023-05-17T11:50:14.271Z,48.85
2023-05-17T11:51:12.067Z,49.17
2023-05-17T11:52:12.209Z,49.27
2023-05-17T11:53:12.191Z,49.38
2023-05-17T11:54:12.029Z,47.67
2023-05-17T11:55:12.323Z,47.98
2023-05-17T11:56:12.024Z,48.39
2023-05-17T11:57:12.043Z,46.97
2023-05-17T11:58:12.162Z,45.86
2023-05-17T11:59:12.110Z,48.08
2023-05-17T12:00:13.000Z,48.08
2023-05-17T12:01:12.027Z,46.56
2023-05-17T12:02:12.066Z,48.69
2023-05-17T12:03:12.510Z,49.60
2023-05-17T12:04:12.261Z,51.53
2023-05-17T12:05:12.018Z,49.88
2023-05-17T12:06:12.061Z,47.25
2023-05-17T12:07:12.105Z,48.14
2023-05-17T12:08:12.058Z,49.45
2023-05-17T12:09:12.115Z,52.19
2023-05-17T12:10:12.006Z,48.24
2023-05-17T12:11:11.953Z,48.74
2023-05-17T12:12:12.040Z,46.60
2023-05-17T12:13:45.181Z,46.09
2023-05-17T12:14:11.912Z,47.28
2023-05-17T12:15:12.311Z,44.46
2023-05-17T12:16:12.055Z,42.72
2023-05-17T12:17:12.264Z,44.64
2023-05-17T12:18:12.060Z,48.68
2023-05-17T12:19:12.321Z,47.72
2023-05-17T12:20:11.987Z,45.20
2023-05-17T12:21:11.959Z,45.06
2023-05-17T12:22:11.913Z,45.14
2023-05-17T12:23:11.893Z,45.54
2023-05-17T12:24:11.984Z,44.78
2023-05-17T12:25:11.798Z,44.71
2023-05-17T12:26:11.849Z,47.36
2023-05-17T12:27:11.755Z,46.40
2023-05-17T12:28:12.893Z,47.20
2023-05-17T12:29:12.108Z,47.23
2023-05-17T12:30:12.919Z,47.74
2023-05-17T12:31:12.165Z,48.22
2023-05-17T12:32:11.865Z,46.80
2023-05-17T12:33:12.211Z,47.51
2023-05-17T12:34:11.920Z,48.70
2023-05-17T12:35:12.141Z,47.81
2023-05-17T12:36:12.889Z,51.68
2023-05-17T12:37:11.941Z,52.99
2023-05-17T12:38:12.193Z,50.87
2023-05-17T12:39:13.171Z,50.92
2023-05-17T12:40:11.946Z,50.09
2023-05-17T12:41:11.837Z,48.58
2023-05-17T12:42:11.890Z,47.64
2023-05-17T12:43:11.979Z,46.73
2023-05-17T12:44:15.412Z,48.65
2023-05-17T12:45:14.420Z,46.01
2023-05-17T12:46:11.988Z,47.52
2023-05-17T12:47:11.765Z,46.56
2023-05-17T12:48:11.937Z,50.01
2023-05-17T12:49:12.274Z,49.73
2023-05-17T12:50:12.215Z,46.83
2023-05-17T12:51:12.318Z,45.29
2023-05-17T12:52:13.150Z,46.86